createdAt,value
2023-02-16T00:00:01.020Z,3.01
2023-02-16T00:05:22.188Z,3.03
2023-02-16T00:10:25.328Z,3.01
2023-02-16T00:15:26.839Z,2.99
2023-02-16T00:20:31.754Z,2.98
2023-02-16T00:25:33.306Z,2.97
2023-02-16T00:30:34.854Z,2.97
2023-02-16T00:35:36.460Z,2.97
2023-02-16T00:40:38.520Z,2.97
2023-02-16T00:45:41.215Z,2.96
2023-02-16T00:50:42.971Z,2.96
2023-02-16T00:55:44.791Z,2.98
2023-02-16T01:00:50.921Z,2.96
2023-02-16T01:06:15.366Z,2.96
2023-02-16T01:11:17.344Z,2.95
2023-02-16T01:16:24.899Z,2.99
2023-02-16T01:21:26.402Z,2.96
2023-02-16T01:26:28.656Z,2.94
2023-02-16T01:31:30.265Z,2.92
2023-02-16T01:36:35.250Z,2.92
2023-02-16T01:41:59.411Z,2.90
2023-02-16T01:47:12.836Z,2.88
2023-02-16T01:52:38.599Z,2.88
2023-02-16T01:57:48.255Z,2.88
2023-02-16T02:03:16.294Z,2.89
2023-02-16T02:08:31.257Z,2.88
2023-02-16T02:13:41.066Z,2.85
2023-02-16T02:18:44.935Z,2.83
2023-02-16T02:24:11.701Z,2.82
2023-02-16T02:29:48.947Z,2.78
2023-02-16T02:35:17.998Z,2.74
2023-02-16T02:40:47.953Z,2.68
2023-02-16T02:46:14.464Z,2.70
2023-02-16T02:51:33.563Z,2.70
2023-02-16T02:56:57.785Z,2.70
2023-02-16T03:02:02.484Z,2.70
2023-02-16T03:07:06.581Z,2.73
2023-02-16T03:12:28.820Z,2.74
2023-02-16T03:17:53.982Z,2.74
2023-02-16T03:23:15.328Z,2.74
2023-02-16T03:28:38.149Z,2.73
2023-02-16T03:33:41.040Z,2.70
2023-02-16T03:38:42.680Z,2.71
2023-02-16T03:43:44.341Z,2.71
2023-02-16T03:48:45.828Z,2.74
2023-02-16T03:53:47.409Z,2.74
2023-02-16T03:58:48.921Z,2.74
2023-02-16T04:03:50.578Z,2.73
2023-02-16T04:08:52.166Z,2.72
2023-02-16T04:13:53.679Z,2.70
2023-02-16T04:18:55.311Z,2.70
2023-02-16T04:23:56.847Z,2.69
2023-02-16T04:28:58.394Z,2.68
2023-02-16T04:33:59.929Z,2.68
2023-02-16T04:39:01.640Z,2.69
2023-02-16T04:44:03.363Z,2.70
2023-02-16T04:49:04.907Z,2.71
2023-02-16T04:54:07.459Z,2.75
2023-02-16T04:59:09.004Z,2.73
2023-02-16T05:04:10.708Z,2.73
2023-02-16T05:09:12.453Z,2.64
2023-02-16T05:14:38.676Z,2.62
2023-02-16T05:19:41.065Z,2.63
2023-02-16T05:24:43.327Z,2.68
2023-02-16T05:29:44.878Z,2.65
2023-02-16T05:34:46.454Z,2.64
2023-02-16T05:39:48.664Z,2.67
2023-02-16T05:44:50.254Z,2.65
2023-02-16T05:49:51.776Z,2.61
2023-02-16T05:54:53.404Z,2.46
2023-02-16T05:59:54.908Z,2.37
2023-02-16T06:04:56.404Z,2.26
2023-02-16T06:09:57.961Z,2.20
2023-02-16T06:14:59.476Z,2.13
2023-02-16T06:20:00.939Z,2.10
2023-02-16T06:25:03.283Z,2.12
2023-02-16T06:30:06.154Z,2.13
2023-02-16T06:35:07.968Z,2.09
2023-02-16T06:40:10.449Z,2.13
2023-02-16T06:45:12.201Z,2.16
2023-02-16T06:50:14.503Z,2.13
2023-02-16T06:55:16.163Z,2.14
2023-02-16T07:00:18.132Z,2.15
2023-02-16T07:05:19.658Z,2.19
2023-02-16T07:10:21.262Z,2.18
2023-02-16T07:15:23.229Z,2.21
2023-02-16T07:20:24.738Z,2.20
2023-02-16T07:25:26.313Z,2.22
2023-02-16T07:30:27.933Z,2.28
2023-02-16T07:35:29.668Z,2.30
2023-02-16T07:40:31.729Z,2.33
2023-02-16T07:45:34.016Z,2.42
2023-02-16T07:50:36.739Z,2.47
2023-02-16T07:55:45.603Z,2.50
2023-02-16T08:00:47.127Z,2.54
2023-02-16T08:05:48.860Z,2.57
2023-02-16T08:10:50.447Z,2.63
2023-02-16T08:15:51.985Z,2.66
2023-02-16T08:21:03.843Z,2.70
2023-02-16T08:26:13.832Z,2.80
2023-02-16T08:31:30.995Z,2.82
2023-02-16T08:36:34.942Z,2.81
2023-02-16T08:41:37.484Z,2.86
2023-02-16T08:46:41.219Z,2.93
2023-02-16T08:51:46.151Z,2.99
2023-02-16T08:56:49.533Z,3.04
2023-02-16T09:01:51.115Z,3.13
2023-02-16T09:06:53.452Z,3.17
2023-02-16T09:11:55.166Z,3.17
2023-02-16T09:16:57.998Z,3.18
2023-02-16T09:21:59.732Z,3.23
2023-02-16T09:27:01.649Z,3.29
2023-02-16T09:32:03.336Z,3.31
2023-02-16T09:37:04.939Z,3.37
2023-02-16T09:42:11.498Z,3.45
2023-02-16T09:47:24.608Z,3.55
2023-02-16T09:52:38.008Z,3.61
2023-02-16T09:58:04.333Z,3.68
2023-02-16T10:03:21.258Z,3.71
2023-02-16T10:08:31.271Z,3.75
2023-02-16T10:13:49.580Z,3.74
2023-02-16T10:18:53.471Z,3.73
2023-02-16T10:24:00.607Z,3.79
2023-02-16T10:29:14.063Z,3.91
2023-02-16T10:34:37.762Z,4.01
2023-02-16T10:39:51.971Z,4.10
2023-02-16T10:45:15.532Z,4.17
2023-02-16T10:50:35.904Z,4.24
2023-02-16T10:55:38.711Z,4.36
2023-02-16T11:00:51.818Z,4.43
2023-02-16T11:05:53.597Z,4.53
2023-02-16T11:10:55.521Z,4.64
2023-02-16T11:16:01.138Z,4.75
2023-02-16T11:21:04.227Z,4.81
2023-02-16T11:26:12.016Z,4.90
2023-02-16T11:31:18.766Z,5.03
2023-02-16T11:36:37.601Z,5.22
2023-02-16T11:41:48.666Z,5.38
2023-02-16T11:46:50.332Z,5.48
2023-02-16T11:51:51.913Z,5.58
2023-02-16T11:57:05.315Z,5.68
2023-02-16T12:02:44.515Z,5.71
2023-02-16T12:08:03.651Z,5.76
2023-02-16T12:13:32.916Z,5.83
2023-02-16T12:18:53.330Z,5.91
2023-02-16T12:24:17.916Z,5.98
2023-02-16T12:29:57.573Z,6.05
2023-02-16T12:35:37.728Z,6.18
2023-02-16T12:41:12.836Z,6.27
2023-02-16T12:46:29.635Z,6.34
2023-02-16T12:51:39.094Z,6.37
2023-02-16T12:56:50.223Z,6.39
2023-02-16T13:01:56.092Z,6.44
2023-02-16T13:07:06.168Z,6.48
2023-02-16T13:12:39.313Z,6.55
2023-02-16T13:17:47.333Z,6.64
2023-02-16T13:23:03.605Z,6.68
2023-02-16T13:28:44.434Z,6.70
2023-02-16T13:34:20.830Z,6.73
2023-02-16T13:39:47.519Z,6.73
2023-02-16T13:44:55.902Z,6.74
2023-02-16T13:50:01.417Z,6.73
2023-02-16T13:55:08.277Z,6.73
2023-02-16T14:00:34.600Z,6.72
2023-02-16T14:05:44.958Z,6.79
2023-02-16T14:10:53.142Z,6.88
2023-02-16T14:15:56.304Z,6.93
2023-02-16T14:21:15.465Z,7.03
2023-02-16T14:26:17.751Z,7.14
2023-02-16T14:31:22.865Z,7.27
2023-02-16T14:36:26.960Z,7.40
2023-02-16T14:41:36.857Z,7.56
2023-02-16T14:47:03.365Z,7.66
2023-02-16T14:52:29.557Z,7.71
2023-02-16T14:57:31.325Z,7.74
2023-02-16T15:02:36.355Z,7.76
2023-02-16T15:07:38.876Z,7.77
2023-02-16T15:12:41.191Z,7.77
2023-02-16T15:17:48.094Z,7.76
2023-02-16T15:22:52.515Z,7.82
2023-02-16T15:28:04.397Z,7.89
2023-02-16T15:33:14.082Z,7.91
2023-02-16T15:38:26.555Z,7.91
2023-02-16T15:43:35.834Z,7.92
2023-02-16T15:48:38.366Z,7.89
2023-02-16T15:53:50.007Z,7.85
2023-02-16T15:58:52.952Z,7.78
2023-02-16T16:03:54.784Z,7.70
2023-02-16T16:08:56.789Z,7.60
2023-02-16T16:13:58.409Z,7.50
2023-02-16T16:19:08.113Z,7.34
2023-02-16T16:24:10.733Z,7.25
2023-02-16T16:29:34.461Z,7.13
2023-02-16T16:34:39.029Z,7.04
2023-02-16T16:39:41.543Z,6.93
2023-02-16T16:44:55.353Z,6.84
2023-02-16T16:50:10.561Z,6.76
2023-02-16T16:55:27.198Z,6.65
2023-02-16T17:00:34.474Z,6.57
2023-02-16T17:05:38.241Z,6.50
2023-02-16T17:10:41.258Z,6.46
2023-02-16T17:16:09.441Z,6.41
2023-02-16T17:21:13.368Z,6.34
2023-02-16T17:26:15.055Z,6.29
2023-02-16T17:31:16.721Z,6.25
2023-02-16T17:36:20.452Z,6.21
2023-02-16T17:41:27.754Z,6.18
2023-02-16T17:46:30.662Z,6.11
2023-02-16T17:51:36.194Z,6.06
2023-02-16T17:56:41.731Z,6.00
2023-02-16T18:01:44.588Z,5.96
2023-02-16T18:06:46.178Z,5.94
2023-02-16T18:11:47.809Z,5.92
2023-02-16T18:16:52.916Z,5.88
2023-02-16T18:21:54.883Z,5.83
2023-02-16T18:26:56.510Z,5.81
2023-02-16T18:31:58.120Z,5.78
2023-02-16T18:36:59.792Z,5.73
2023-02-16T18:42:01.455Z,5.68
2023-02-16T18:47:03.332Z,5.63
2023-02-16T18:52:04.847Z,5.60
2023-02-16T18:57:07.060Z,5.60
2023-02-16T19:02:08.670Z,5.60
2023-02-16T19:07:10.781Z,5.59
2023-02-16T19:12:12.693Z,5.58
2023-02-16T19:17:14.395Z,5.56
2023-02-16T19:22:15.968Z,5.56
2023-02-16T19:27:18.175Z,5.55
2023-02-16T19:32:20.467Z,5.53
2023-02-16T19:37:22.140Z,5.53
2023-02-16T19:42:23.936Z,5.52
2023-02-16T19:47:25.526Z,5.51
2023-02-16T19:52:27.119Z,5.50
2023-02-16T19:57:28.707Z,5.49
2023-02-16T20:02:31.964Z,5.47
2023-02-16T20:07:34.727Z,5.43
2023-02-16T20:12:36.564Z,5.40
2023-02-16T20:17:38.162Z,5.38
2023-02-16T20:22:39.734Z,5.35
2023-02-16T20:27:41.814Z,5.35
2023-02-16T20:32:43.446Z,5.34
2023-02-16T20:37:45.016Z,5.37
2023-02-16T20:42:46.540Z,5.34
2023-02-16T20:47:48.691Z,5.33
2023-02-16T20:52:50.236Z,5.33
2023-02-16T20:57:51.791Z,5.35
2023-02-16T21:02:54.204Z,5.34
2023-02-16T21:07:55.839Z,5.32
2023-02-16T21:12:57.425Z,5.29
2023-02-16T21:17:59.145Z,5.29
2023-02-16T21:23:03.424Z,5.28
2023-02-16T21:28:05.017Z,5.27
2023-02-16T21:33:06.597Z,5.27
2023-02-16T21:38:08.155Z,5.26
2023-02-16T21:43:10.353Z,5.26
2023-02-16T21:48:30.514Z,5.24
2023-02-16T21:53:32.062Z,5.22
2023-02-16T21:58:33.781Z,5.23
2023-02-16T22:03:35.821Z,5.25
2023-02-16T22:08:38.100Z,5.26
2023-02-16T22:13:40.118Z,5.25
2023-02-16T22:18:42.153Z,5.27
2023-02-16T22:23:43.681Z,5.25
2023-02-16T22:28:45.159Z,5.25
2023-02-16T22:33:47.444Z,5.28
2023-02-16T22:38:48.996Z,5.27
2023-02-16T22:43:55.217Z,5.27
2023-02-16T22:48:58.498Z,5.19
2023-02-16T22:54:01.699Z,5.15
2023-02-16T22:59:03.374Z,5.15
2023-02-16T23:04:05.054Z,5.16
2023-02-16T23:09:22.891Z,5.17
2023-02-16T23:14:24.426Z,5.18
2023-02-16T23:19:26.610Z,5.21
2023-02-16T23:24:28.325Z,5.23
2023-02-16T23:29:30.125Z,5.26
2023-02-16T23:34:31.834Z,5.26
2023-02-16T23:39:33.366Z,5.27
2023-02-16T23:44:34.886Z,5.31
2023-02-16T23:49:36.428Z,5.32
2023-02-16T23:54:38.020Z,5.33
2023-02-16T23:59:39.889Z,5.33
